Time;durP1;ratioP1;P1;durP2;ratioP2;P2;SDS_P1;SDS_P2;PMS_P1;PMS_P2;Temp;Humidity;BMP_temperature;BMP_pressure;BME280_temperature;BME280_humidity;BME280_pressure;Samples;Min_cycle;Max_cycle;Signal;HPM_P1;HPM_P2
2022/06/02 00:01:12;;;;;;;7.20;4.32;;;;;;;6.65;100.00;100933.38;5093305;28;20454;-68
2022/06/02 00:03:52;;;;;;;8.43;4.18;;;;;;;6.66;100.00;100940.28;5092659;28;20484;-68
2022/06/02 00:06:59;;;;;;;4.55;3.45;;;;;;;6.64;100.00;100929.03;5073245;28;20025;-69
2022/06/02 00:09:43;;;;;;;5.80;4.10;;;;;;;6.52;100.00;100918.94;5068397;28;20494;-68
2022/06/02 00:12:24;;;;;;;5.10;3.97;;;;;;;6.58;100.00;100929.22;5092066;28;20528;-69
2022/06/02 00:15:00;;;;;;;8.88;4.43;;;;;;;6.55;100.00;100939.72;5083387;28;20028;-68
2022/06/02 00:17:50;;;;;;;5.72;3.88;;;;;;;6.49;100.00;100932.06;5075469;28;20047;-68
2022/06/02 00:20:21;;;;;;;5.55;3.80;;;;;;;6.35;100.00;100916.75;5086040;28;20625;-69
2022/06/02 00:23:25;;;;;;;5.45;4.63;;;;;;;6.43;100.00;100930.44;5090329;28;20024;-69
2022/06/02 00:26:21;;;;;;;4.55;3.53;;;;;;;6.46;100.00;100934.72;5061893;28;20043;-69
2022/06/02 00:29:02;;;;;;;6.07;3.90;;;;;;;6.46;100.00;100934.72;5087510;28;20034;-69
2022/06/02 00:31:51;;;;;;;6.75;4.05;;;;;;;6.43;100.00;100940.88;5079854;28;20036;-69
2022/06/02 00:34:35;;;;;;;12.25;4.20;;;;;;;6.41;100.00;100941.81;5090479;28;20024;-68
2022/06/02 00:37:10;;;;;;;7.53;4.50;;;;;;;6.34;100.00;100935.03;5093800;28;20027;-69
2022/06/02 00:39:35;;;;;;;7.95;4.43;;;;;;;6.23;100.00;100917.03;5089165;28;20541;-69
2022/06/02 00:42:19;;;;;;;4.60;3.72;;;;;;;6.33;100.00;100946.34;5086775;28;20032;-69
2022/06/02 00:44:55;;;;;;;6.93;4.77;;;;;;;6.30;100.00;100947.28;5087825;28;20039;-69
2022/06/02 00:47:31;;;;;;;5.47;4.45;;;;;;;6.28;100.00;100953.44;5091950;28;20270;-69
2022/06/02 00:50:04;;;;;;;9.18;5.18;;;;;;;6.25;100.00;100950.91;5091171;28;20167;-69
2022/06/02 00:52:37;;;;;;;17.33;5.20;;;;;;;6.23;100.00;100955.28;5092525;28;20107;-69
2022/06/02 00:58:34;;;;;;;7.65;5.82;;;;;;;6.09;100.00;100956.47;5092014;28;20054;-69
2022/06/02 01:01:09;;;;;;;8.15;5.50;;;;;;;5.98;100.00;100950.63;5092017;28;20064;-69
2022/06/02 01:03:44;;;;;;;8.05;5.30;;;;;;;5.85;100.00;100943.94;5092546;28;20031;-69
2022/06/02 01:06:50;;;;;;;6.53;4.43;;;;;;;5.88;100.00;100949.13;5092243;28;20024;-69
2022/06/02 01:09:27;;;;;;;6.80;5.38;;;;;;;5.93;100.00;100955.13;5093098;28;20052;-69
2022/06/02 01:12:04;;;;;;;11.00;5.30;;;;;;;5.68;100.00;100915.63;5092383;28;20028;-69
2022/06/02 01:14:45;;;;;;;7.65;5.15;;;;;;;5.95;100.00;100955.06;5084591;28;20036;-69
2022/06/02 01:17:47;;;;;;;8.02;5.75;;;;;;;5.94;100.00;100948.16;5074660;28;20115;-69
2022/06/02 01:20:30;;;;;;;8.70;5.28;;;;;;;5.91;100.00;100956.91;5088181;28;20082;-69
2022/06/02 01:23:42;;;;;;;7.18;5.15;;;;;;;5.59;100.00;100923.66;5084918;28;20104;-69
2022/06/02 01:26:47;;;;;;;9.15;6.20;;;;;;;5.75;100.00;100957.22;5062465;28;20082;-69
2022/06/02 01:29:35;;;;;;;10.00;5.90;;;;;;;5.80;100.00;100953.63;5064907;28;20498;-69
2022/06/02 01:32:12;;;;;;;7.95;6.32;;;;;;;5.60;100.00;100925.41;5091057;28;20278;-69
2022/06/02 01:34:41;;;;;;;9.90;5.93;;;;;;;5.82;100.00;100957.06;5071246;28;20025;-69
2022/06/02 01:37:28;;;;;;;6.68;5.75;;;;;;;5.78;100.00;100960.63;5104523;28;20050;-69
2022/06/02 01:40:10;;;;;;;8.65;5.15;;;;;;;5.73;100.00;100956.41;5076578;28;20035;-69
2022/06/02 01:42:52;;;;;;;8.02;5.22;;;;;;;5.56;100.00;100947.19;5081807;28;20028;-69
2022/06/02 01:45:26;;;;;;;9.95;5.93;;;;;;;5.51;100.00;100956.84;5089375;28;20093;-68
2022/06/02 01:48:06;;;;;;;9.80;6.85;;;;;;;5.33;100.00;100935.53;5084662;28;20028;-68
2022/06/02 01:50:44;;;;;;;8.40;7.10;;;;;;;5.40;100.00;100934.53;5083582;28;20436;-68
2022/06/02 01:53:15;;;;;;;8.38;6.35;;;;;;;5.58;100.00;100952.34;5091463;28;20071;-68
2022/06/02 01:56:06;;;;;;;7.75;6.50;;;;;;;5.62;100.00;100948.81;5090952;28;20509;-68
2022/06/02 01:58:40;;;;;;;9.48;7.70;;;;;;;5.62;100.00;100959.22;5080193;28;20048;-68
2022/06/02 02:01:44;;;;;;;;;;;;;;;5.59;100.00;100949.75;5089494;28;20033;-69
2022/06/02 02:04:36;;;;;;;8.73;6.53;;;;;;;5.56;100.00;100959.38;5083798;28;20416;-68
2022/06/02 02:07:09;;;;;;;9.15;6.90;;;;;;;5.51;100.00;100958.59;5073031;28;20024;-69
2022/06/02 02:09:35;;;;;;;9.10;6.57;;;;;;;5.50;100.00;100967.31;5089505;28;20474;-69
2022/06/02 02:12:01;;;;;;;7.18;5.80;;;;;;;5.39;100.00;100951.91;5092099;28;20532;-69
2022/06/02 02:14:31;;;;;;;9.25;6.85;;;;;;;5.46;100.00;100968.25;5076016;28;20032;-69
2022/06/02 02:17:21;;;;;;;10.65;7.15;;;;;;;5.43;100.00;100963.97;5083497;28;20033;-69
2022/06/02 02:19:58;;;;;;;10.15;7.85;;;;;;;5.39;100.00;100956.25;5088436;28;20107;-69
2022/06/02 02:22:44;;;;;;;9.88;8.18;;;;;;;5.34;100.00;100953.72;5107359;28;20123;-69
2022/06/02 02:25:15;;;;;;;10.10;8.70;;;;;;;5.30;100.00;100951.22;5082115;28;20463;-69
2022/06/02 02:28:02;;;;;;;10.38;8.43;;;;;;;5.36;100.00;100974.53;5083382;28;20032;-69
2022/06/02 02:30:44;;;;;;;11.25;10.05;;;;;;;5.27;100.00;100964.31;5079432;28;20032;-68
2022/06/02 02:33:18;;;;;;;10.18;8.60;;;;;;;5.20;100.00;100960.97;5091948;28;20032;-68
2022/06/02 02:36:05;;;;;;;14.48;10.85;;;;;;;5.26;100.00;100983.44;5093952;28;20474;-68
2022/06/02 02:38:37;;;;;;;14.80;9.65;;;;;;;5.13;100.00;100960.22;5093945;28;20394;-68
2022/06/02 02:41:06;;;;;;;12.63;9.82;;;;;;;4.92;100.00;100929.38;5094923;28;20036;-68
2022/06/02 02:43:54;;;;;;;13.63;10.15;;;;;;;5.04;100.00;100955.16;5082087;28;20024;-68
2022/06/02 02:46:47;;;;;;;13.18;10.48;;;;;;;5.05;100.00;100985.53;5094298;28;20028;-68
2022/06/02 02:49:14;;;;;;;13.50;10.80;;;;;;;5.07;100.00;100980.28;5082480;28;20031;-68
2022/06/02 02:51:50;;;;;;;13.85;9.95;;;;;;;5.06;100.00;100976.84;5087988;28;20073;-68
2022/06/02 02:54:21;;;;;;;14.55;11.20;;;;;;;4.98;100.00;100970.06;5094784;28;20040;-68
2022/06/02 02:57:24;;;;;;;12.07;9.85;;;;;;;5.04;100.00;100969.94;5095564;28;20036;-68
2022/06/02 02:59:57;;;;;;;15.63;11.05;;;;;;;5.03;100.00;100982.13;5094156;28;20023;-68
2022/06/02 03:02:44;;;;;;;11.82;9.95;;;;;;;5.03;100.00;100986.47;5093539;28;20047;-68
2022/06/02 03:05:27;;;;;;;11.18;9.90;;;;;;;5.02;100.00;100983.00;5094046;28;20035;-68
2022/06/02 03:07:52;;;;;;;13.23;9.75;;;;;;;4.93;100.00;100974.50;5092243;28;21958;-68
2022/06/02 03:10:37;;;;;;;13.90;10.38;;;;;;;4.98;100.00;100989.16;5089420;28;20028;-68
2022/06/02 03:13:11;;;;;;;10.80;9.57;;;;;;;5.00;100.00;100999.53;5090674;28;20428;-68
2022/06/02 03:15:48;;;;;;;10.88;8.85;;;;;;;4.96;100.00;100996.13;5089950;28;20040;-68
2022/06/02 03:18:34;;;;;;;12.52;9.45;;;;;;;4.86;100.00;100984.16;5085240;28;20020;-68
2022/06/02 03:21:18;;;;;;;13.38;10.50;;;;;;;4.90;100.00;100988.41;5094650;28;20027;-68
2022/06/02 03:24:08;;;;;;;9.45;8.02;;;;;;;4.85;100.00;100994.59;5050075;28;20056;-68
2022/06/02 03:26:50;;;;;;;11.40;9.48;;;;;;;4.80;100.00;100996.44;5046022;28;20024;-68
2022/06/02 03:29:32;;;;;;;12.57;10.20;;;;;;;4.79;100.00;100994.69;5093795;28;20028;-68
2022/06/02 03:32:10;;;;;;;14.70;11.07;;;;;;;4.69;100.00;100988.78;5094998;28;20501;-68
2022/06/02 03:34:44;;;;;;;13.13;10.25;;;;;;;4.76;100.00;101005.16;5091497;28;20089;-69
2022/06/02 03:37:16;;;;;;;12.52;10.40;;;;;;;4.73;100.00;101000.84;5088359;28;20039;-68
2022/06/02 03:39:54;;;;;;;12.27;9.88;;;;;;;4.64;100.00;100990.59;5080523;28;20027;-68
2022/06/02 03:42:31;;;;;;;14.68;10.18;;;;;;;4.75;100.00;101004.31;5095075;28;20028;-68
2022/06/02 03:45:02;;;;;;;12.95;10.43;;;;;;;4.73;100.00;101005.22;5084354;28;20156;-68
2022/06/02 03:48:00;;;;;;;16.45;11.02;;;;;;;4.50;100.00;100975.22;5080905;28;20127;-68
2022/06/02 03:50:34;;;;;;;12.35;10.32;;;;;;;4.73;100.00;101008.66;5093961;28;20099;-68
2022/06/02 03:53:02;;;;;;;;;;;;;;;4.77;100.00;101014.69;5089981;28;20020;-68
2022/06/02 03:55:30;;;;;;;12.10;9.75;;;;;;;4.77;100.00;101023.34;5063221;28;19912;-68
2022/06/02 03:58:09;;;;;;;15.02;11.43;;;;;;;4.77;100.00;101023.34;5094051;28;20161;-69
2022/06/02 04:00:50;;;;;;;11.93;9.25;;;;;;;4.59;100.00;101002.84;5082549;28;20024;-69
2022/06/02 04:03:43;;;;;;;13.15;11.00;;;;;;;4.66;100.00;101019.22;5093139;28;20039;-69
2022/06/02 04:06:23;;;;;;;14.90;12.10;;;;;;;4.78;100.00;101034.63;5071706;28;20028;-68
2022/06/02 04:09:10;;;;;;;14.27;12.20;;;;;;;4.85;100.00;101041.44;5080353;28;20028;-68
2022/06/02 04:14:47;;;;;;;14.80;11.25;;;;;;;4.95;100.00;101035.22;5093962;28;20501;-68
2022/06/02 04:17:26;;;;;;;15.68;11.98;;;;;;;4.96;100.00;101040.41;5092203;28;20028;-68
2022/06/02 04:22:47;;;;;;;17.63;12.27;;;;;;;5.09;100.00;101041.91;5085802;28;20031;-68
2022/06/02 04:25:42;;;;;;;13.52;11.60;;;;;;;5.20;100.00;101041.72;5088928;28;20043;-68
2022/06/02 04:28:17;;;;;;;15.10;11.68;;;;;;;5.29;100.00;101044.16;5093289;28;20036;-68
2022/06/02 04:30:58;;;;;;;12.63;11.05;;;;;;;5.21;100.00;101019.09;5092729;28;20532;-68
2022/06/02 04:33:32;;;;;;;14.82;11.65;;;;;;;5.40;100.00;101044.81;5089809;28;20016;-69
2022/06/02 04:36:07;;;;;;;;;;;;;;;5.43;100.00;101036.94;5092416;28;20024;-69
2022/06/02 04:38:51;;;;;;;;;;;;;;;5.46;100.00;101039.50;5075856;28;20028;-69
2022/06/02 04:41:34;;;;;;;16.17;12.95;;;;;;;5.54;100.00;101039.34;5093850;28;19912;-69
2022/06/02 04:44:21;;;;;;;15.32;12.65;;;;;;;5.59;100.00;101033.16;5075338;28;20474;-69
2022/06/02 04:46:56;;;;;;;15.52;13.32;;;;;;;5.72;100.00;101033.75;5093116;28;20039;-69
2022/06/02 04:49:31;;;;;;;19.23;14.32;;;;;;;5.86;100.00;101031.75;5078859;28;20035;-68
2022/06/02 04:52:11;;;;;;;15.43;13.80;;;;;;;5.95;100.00;101031.56;5093242;28;20072;-68
2022/06/02 04:54:57;;;;;;;18.67;13.88;;;;;;;5.97;100.00;101014.16;5082104;28;20571;-69
2022/06/02 04:57:30;;;;;;;16.10;14.30;;;;;;;6.15;100.00;101024.16;5088213;28;20067;-69
2022/06/02 05:00:04;;;;;;;18.63;16.10;;;;;;;6.24;100.00;101023.13;5081093;28;20115;-69
2022/06/02 05:02:58;;;;;;;16.88;14.70;;;;;;;6.26;100.00;101012.63;5078372;28;20024;-68
2022/06/02 05:05:23;;;;;;;16.77;14.88;;;;;;;6.45;100.00;101027.00;5092589;28;20028;-68
2022/06/02 05:08:00;;;;;;;18.52;14.35;;;;;;;6.33;100.00;100995.94;5086233;28;20034;-68
2022/06/02 05:10:51;;;;;;;18.08;15.05;;;;;;;6.66;100.00;101027.31;5075288;28;20031;-68
2022/06/02 05:13:22;;;;;;;18.08;15.18;;;;;;;6.76;100.00;101022.72;5077183;28;20123;-68
2022/06/02 05:16:23;;;;;;;17.73;14.82;;;;;;;6.90;100.00;101025.00;5080329;28;20060;-68
2022/06/02 05:19:10;;;;;;;19.42;17.10;;;;;;;7.01;100.00;101012.53;5070479;28;20122;-68
2022/06/02 05:21:46;;;;;;;20.13;16.73;;;;;;;7.19;100.00;101023.38;5088544;28;20444;-68
2022/06/02 05:24:26;;;;;;;30.52;19.40;;;;;;;7.35;100.00;101020.34;5082457;28;20177;-68
2022/06/02 05:27:05;;;;;;;27.45;18.13;;;;;;;7.51;100.00;101026.88;5092707;28;20024;-68
2022/06/02 05:30:07;;;;;;;22.25;19.95;;;;;;;7.67;100.00;101033.41;5091112;28;20088;-68
2022/06/02 05:32:41;;;;;;;22.88;18.48;;;;;;;7.83;100.00;101042.53;5084092;28;20033;-68
2022/06/02 05:35:16;;;;;;;;;;;;;;;7.97;100.00;101043.00;5092876;28;20036;-68
2022/06/02 05:38:05;;;;;;;24.25;20.30;;;;;;;8.11;100.00;101043.41;5092669;28;19987;-68
2022/06/02 05:40:58;;;;;;;25.33;22.02;;;;;;;8.23;100.00;101045.69;5079570;28;20034;-68
2022/06/02 05:43:46;;;;;;;28.98;20.38;;;;;;;8.37;100.00;101049.69;5071785;28;20115;-68
2022/06/02 05:46:42;;;;;;;28.02;21.80;;;;;;;8.34;100.00;101026.22;5091040;28;20402;-68
2022/06/02 05:49:26;;;;;;;24.23;19.83;;;;;;;8.63;100.00;101068.91;5076344;28;20035;-68
2022/06/02 05:52:23;;;;;;;23.02;18.55;;;;;;;8.75;100.00;101061.59;5091272;28;20032;-68
2022/06/02 05:55:16;;;;;;;18.63;16.65;;;;;;;8.53;100.00;101003.78;5082186;28;20032;-68
2022/06/02 05:58:03;;;;;;;18.35;16.45;;;;;;;9.05;100.00;101071.94;5091006;28;20027;-68
2022/06/02 06:00:41;;;;;;;18.55;14.77;;;;;;;9.17;100.00;101074.13;5089840;28;20101;-68
2022/06/02 06:03:32;;;;;;;16.83;15.02;;;;;;;9.17;100.00;101063.63;5039233;28;20027;-68
2022/06/02 06:06:10;;;;;;;18.83;16.02;;;;;;;9.41;100.00;101087.31;5032947;28;20292;-68
2022/06/02 06:08:49;;;;;;;18.80;16.80;;;;;;;9.53;100.00;101090.34;5030308;28;20238;-68
2022/06/02 06:11:42;;;;;;;19.38;16.95;;;;;;;9.60;100.00;101085.75;5046726;28;20095;-68
2022/06/02 06:14:37;;;;;;;21.25;17.20;;;;;;;9.74;100.00;101099.25;5046876;28;20144;-68
2022/06/02 06:17:11;;;;;;;18.05;16.25;;;;;;;9.83;100.00;101098.94;5042434;28;20871;-67
2022/06/02 06:19:42;;;;;;;16.30;14.70;;;;;;;9.90;100.00;101105.66;5047914;28;20324;-68
2022/06/02 06:22:26;;;;;;;18.15;16.33;;;;;;;9.97;100.00;101101.06;5046575;28;20040;-68
2022/06/02 06:25:10;;;;;;;20.92;17.00;;;;;;;10.05;100.00;101105.13;5037748;28;20032;-68
2022/06/02 06:28:10;;;;;;;15.80;13.20;;;;;;;10.12;100.00;101109.22;5047947;28;20036;-68
2022/06/02 06:31:00;;;;;;;19.23;15.32;;;;;;;10.21;100.00;101105.44;5046647;28;20041;-68
2022/06/02 06:33:53;;;;;;;14.85;13.35;;;;;;;10.22;100.00;101102.75;5045789;28;20135;-68
2022/06/02 06:36:30;;;;;;;12.80;11.50;;;;;;;10.30;100.00;101101.63;5047956;28;20104;-68
2022/06/02 06:39:07;;;;;;;13.13;11.65;;;;;;;10.39;100.00;101110.00;5047648;28;20024;-68
2022/06/02 06:41:32;;;;;;;12.35;10.35;;;;;;;10.45;100.00;101116.78;5048675;28;20902;-68
2022/06/02 06:44:01;;;;;;;10.50;9.40;;;;;;;10.51;100.00;101119.19;5047826;28;20130;-68
2022/06/02 06:46:29;;;;;;;8.68;6.80;;;;;;;10.56;100.00;101125.97;5046189;28;20036;-68
2022/06/02 06:49:00;;;;;;;13.73;6.55;;;;;;;10.60;100.00;101118.84;5033522;28;20035;-68
2022/06/02 06:51:50;;;;;;;9.88;7.00;;;;;;;10.73;100.00;101125.31;5033894;28;20032;-68
2022/06/02 06:54:40;;;;;;;7.68;5.35;;;;;;;10.81;100.00;101128.53;5045182;28;20036;-68
2022/06/02 06:57:56;;;;;;;7.25;4.90;;;;;;;10.69;100.00;101103.56;5056499;28;20032;-68
2022/06/02 07:00:47;;;;;;;5.95;4.55;;;;;;;10.94;100.00;101123.63;5015881;28;20147;-68
2022/06/02 07:03:44;;;;;;;6.13;4.05;;;;;;;10.95;100.00;101120.91;5045648;28;20024;-68
2022/06/02 07:06:16;;;;;;;6.25;4.18;;;;;;;10.98;100.00;101115.56;5045581;28;20020;-68
2022/06/02 07:08:53;;;;;;;6.93;5.65;;;;;;;11.07;100.00;101116.94;5040031;28;20064;-68
2022/06/02 07:14:21;;;;;;;9.38;4.75;;;;;;;11.20;100.00;101115.53;5045463;28;20047;-68
2022/06/02 07:16:55;;;;;;;5.35;4.63;;;;;;;11.28;100.00;101114.31;5045420;28;20027;-68
2022/06/02 07:19:30;;;;;;;8.18;5.00;;;;;;;11.43;100.00;101125.09;5045434;28;20876;-68
2022/06/02 07:21:58;;;;;;;;;;;;;;;11.56;100.00;101127.13;5040531;28;20064;-68
2022/06/02 07:24:32;;;;;;;6.70;5.82;;;;;;;11.61;100.00;101126.94;5044969;28;19976;-68
2022/06/02 07:27:38;;;;;;;8.95;6.57;;;;;;;11.71;100.00;101125.66;5038968;28;20024;-68
2022/06/02 07:30:20;;;;;;;6.15;5.45;;;;;;;11.85;100.00;101135.59;5024087;28;20047;-68
2022/06/02 07:33:28;;;;;;;6.47;4.55;;;;;;;11.95;100.00;101135.16;5043302;28;20032;-68
2022/06/02 07:35:59;;;;;;;7.10;4.72;;;;;;;12.04;100.00;101125.97;5035883;28;20029;-68
2022/06/02 07:39:15;;;;;;;9.00;5.25;;;;;;;12.07;100.00;101116.16;5044952;28;20870;-68
2022/06/02 07:42:11;;;;;;;9.55;6.45;;;;;;;12.17;100.00;101111.31;5037562;28;20131;-68
2022/06/02 07:44:46;;;;;;;9.32;5.72;;;;;;;12.26;100.00;101126.72;5046023;28;20339;-68
2022/06/02 07:47:24;;;;;;;6.93;3.83;;;;;;;12.28;100.00;101114.31;5042115;28;20047;-68
2022/06/02 07:50:04;;;;;;;9.65;5.45;;;;;;;12.40;100.00;101112.91;5030565;28;20093;-68
2022/06/02 07:52:54;;;;;;;10.15;4.90;;;;;;;12.32;100.00;101091.31;5046589;28;20028;-67
2022/06/02 07:55:26;;;;;;;5.90;4.28;;;;;;;12.55;100.00;101122.75;5051126;28;20035;-67
2022/06/02 07:58:16;;;;;;;9.77;4.35;;;;;;;12.43;100.00;101123.31;5037879;28;20963;-68
2022/06/02 08:00:51;;;;;;;6.28;4.07;;;;;;;12.24;100.00;101121.50;5044952;28;20241;-68
2022/06/02 08:03:20;;;;;;;7.35;4.93;;;;;;;12.23;100.00;101117.16;5047259;28;20060;-67
2022/06/02 08:05:48;;;;;;;6.57;3.58;;;;;;;12.30;100.00;101112.50;5046448;28;20128;-68
2022/06/02 08:08:38;;;;;;;5.50;2.92;;;;;;;12.25;100.00;101104.78;5043492;28;20955;-68
2022/06/02 08:11:39;;;;;;;8.80;3.65;;;;;;;12.32;100.00;101110.63;5038403;28;20028;-68
2022/06/02 08:14:17;;;;;;;5.10;2.78;;;;;;;12.47;100.00;101106.44;5029094;28;20047;-68
2022/06/02 08:17:06;;;;;;;4.50;3.00;;;;;;;12.65;100.00;101114.31;5044498;28;20032;-68
2022/06/02 08:19:50;;;;;;;6.70;2.78;;;;;;;12.74;100.00;101107.78;5030653;28;20029;-68
2022/06/02 08:22:24;;;;;;;8.23;2.30;;;;;;;12.62;100.00;101079.34;5046583;28;20042;-68
2022/06/02 08:25:10;;;;;;;5.05;3.05;;;;;;;12.89;100.00;101112.31;5044979;28;20136;-68
2022/06/02 08:27:42;;;;;;;4.93;2.78;;;;;;;12.97;100.00;101115.44;5045895;28;20028;-68
2022/06/02 08:30:14;;;;;;;3.72;2.33;;;;;;;13.03;100.00;101112.50;5047286;28;20035;-68
2022/06/02 08:32:48;;;;;;;9.95;3.80;;;;;;;13.06;100.00;101114.97;5042767;28;20135;-68
2022/06/02 08:35:51;;;;;;;6.47;3.55;;;;;;;13.14;100.00;101118.16;5041231;28;20028;-68
2022/06/02 08:38:50;;;;;;;5.15;2.70;;;;;;;13.29;100.00;101127.06;5047507;28;20032;-68
2022/06/02 08:41:40;;;;;;;4.25;3.25;;;;;;;13.37;100.00;101135.47;5045178;28;20046;-68
2022/06/02 08:44:27;;;;;;;5.00;3.38;;;;;;;13.44;100.00;101136.03;5044400;28;20021;-68
2022/06/02 08:47:04;;;;;;;7.40;4.55;;;;;;;13.69;100.00;101136.47;5033363;28;20037;-68
2022/06/02 08:49:44;;;;;;;5.63;4.32;;;;;;;14.00;100.00;101136.59;5045031;28;20032;-68
2022/06/02 08:52:30;;;;;;;16.00;4.70;;;;;;;14.30;100.00;101140.25;5043303;28;20028;-68
2022/06/02 08:55:08;;;;;;;7.10;4.40;;;;;;;14.55;100.00;101134.53;5033888;28;20036;-68
2022/06/02 08:57:39;;;;;;;7.82;3.88;;;;;;;14.85;100.00;101137.28;5043261;28;20020;-67
2022/06/02 09:00:18;;;;;;;5.40;3.60;;;;;;;14.93;100.00;101124.47;5034365;28;20125;-68
2022/06/02 09:03:25;;;;;;;4.45;3.10;;;;;;;15.04;100.00;101116.75;5044913;28;20135;-68
2022/06/02 09:06:04;;;;;;;4.28;2.90;;;;;;;15.19;100.00;101142.38;5034417;28;20150;-68
2022/06/02 09:08:58;;;;;;;6.15;3.53;;;;;;;15.02;100.00;101118.66;5046961;28;20036;-68
2022/06/02 09:11:32;;;;;;;6.03;2.80;;;;;;;15.12;100.00;101141.00;5035678;28;20036;-68
2022/06/02 09:14:12;;;;;;;3.70;2.47;;;;;;;15.11;100.00;101139.28;5031240;28;20304;-68
2022/06/02 09:17:01;;;;;;;3.10;1.73;;;;;;;15.04;100.00;101122.06;5031340;28;20082;-68
2022/06/02 09:19:36;;;;;;;4.35;2.20;;;;;;;15.19;100.00;101147.66;5046435;28;20035;-68
2022/06/02 09:22:04;;;;;;;3.53;2.33;;;;;;;15.17;100.00;101143.41;5044824;28;20035;-68
2022/06/02 09:25:08;;;;;;;4.00;2.88;;;;;;;15.09;100.00;101133.25;5045792;28;20039;-69
2022/06/02 09:27:55;;;;;;;5.28;3.17;;;;;;;15.14;100.00;101138.28;5015544;28;20097;-68
2022/06/02 09:30:32;;;;;;;4.80;2.80;;;;;;;15.07;100.00;101136.94;5035802;28;20044;-68
2022/06/02 09:33:33;;;;;;;5.95;3.42;;;;;;;14.99;100.00;101133.84;5045363;28;20020;-68
2022/06/02 09:36:00;;;;;;;4.82;3.33;;;;;;;15.08;100.00;101123.59;5047502;28;20055;-68
2022/06/02 09:39:19;;;;;;;12.15;3.22;;;;;;;15.39;100.00;101132.41;5043543;28;20058;-68
2022/06/02 09:42:20;;;;;;;6.22;2.83;;;;;;;15.63;100.00;101131.88;5033673;28;20152;-68
2022/06/02 09:45:09;;;;;;;3.72;2.70;;;;;;;15.88;100.00;101139.22;5007537;28;20048;-68
2022/06/02 09:47:38;;;;;;;5.95;2.90;;;;;;;16.00;100.00;101137.59;5085639;28;20164;-68
2022/06/02 09:50:24;;;;;;;3.60;2.55;;;;;;;16.06;100.00;101135.44;5084177;28;20032;-68
2022/06/02 09:52:53;;;;;;;3.95;2.15;;;;;;;16.07;100.00;101134.50;5070390;28;20032;-69
2022/06/02 09:55:31;;;;;;;5.68;3.10;;;;;;;15.95;100.00;101123.78;5091573;28;20035;-68
2022/06/02 09:58:21;;;;;;;4.53;2.95;;;;;;;16.01;100.00;101128.72;5106758;28;20112;-68
2022/06/02 10:00:58;;;;;;;4.10;2.28;;;;;;;16.02;94.43;101136.56;5090168;28;20024;-68
2022/06/02 10:03:54;;;;;;;8.32;4.20;;;;;;;16.06;100.00;101129.28;5081357;28;20043;-68
2022/06/02 10:06:34;;;;;;;4.05;2.47;;;;;;;16.14;100.00;101127.00;5080283;28;20492;-68
2022/06/02 10:09:23;;;;;;;6.10;3.05;;;;;;;16.14;99.91;101116.41;5088871;28;20059;-68
2022/06/02 10:15:09;;;;;;;5.35;3.30;;;;;;;16.17;100.00;101114.41;5090044;28;20529;-68
2022/06/02 10:17:40;;;;;;;4.68;3.65;;;;;;;16.21;100.00;101123.91;5068023;28;20975;-68
2022/06/02 10:20:22;;;;;;;5.47;3.33;;;;;;;16.35;100.00;101121.25;5080786;28;20060;-69
2022/06/02 10:23:22;;;;;;;10.32;3.85;;;;;;;16.51;100.00;101112.31;5077774;28;20094;-69
2022/06/02 10:25:53;;;;;;;3.95;2.97;;;;;;;16.69;100.00;101122.66;5083794;28;20155;-69
2022/06/02 10:28:18;;;;;;;8.30;3.75;;;;;;;16.92;100.00;101120.31;5081008;28;20119;-68
2022/06/02 10:31:01;;;;;;;6.38;3.35;;;;;;;17.20;100.00;101115.72;5090180;28;20114;-68
2022/06/02 10:34:25;;;;;;;5.47;3.22;;;;;;;17.32;100.00;101114.06;5089134;28;20092;-68
2022/06/02 10:37:00;;;;;;;8.85;4.03;;;;;;;17.18;96.05;101117.66;5019503;28;20048;-71
2022/06/02 10:40:04;;;;;;;6.68;3.38;;;;;;;16.97;100.00;101127.00;5091334;28;20429;-68
2022/06/02 10:42:34;;;;;;;;;;;;;;;17.06;100.00;101112.28;5041352;28;20084;-68
2022/06/02 10:45:24;;;;;;;4.43;3.20;;;;;;;17.06;100.00;101086.59;5092191;28;20320;-68
2022/06/02 10:48:28;;;;;;;6.15;3.05;;;;;;;17.34;100.00;101109.50;5079073;28;20122;-68
2022/06/02 10:51:12;;;;;;;4.18;2.67;;;;;;;17.51;100.00;101103.91;5083625;28;20040;-68
2022/06/02 10:54:16;;;;;;;5.23;2.67;;;;;;;17.73;100.00;101114.84;5082674;28;20514;-68
2022/06/02 10:57:03;;;;;;;5.95;4.05;;;;;;;17.88;100.00;101099.59;5082639;28;20617;-68
2022/06/02 11:00:09;;;;;;;5.50;4.30;;;;;;;17.78;95.88;101106.53;5103768;28;20028;-68
2022/06/02 11:02:56;;;;;;;13.40;4.32;;;;;;;17.81;97.29;101095.69;5092292;28;20032;-69
2022/06/02 11:05:50;;;;;;;5.25;3.35;;;;;;;17.82;94.09;101097.38;5075665;28;20087;-69
2022/06/02 11:08:48;;;;;;;5.15;2.70;;;;;;;18.00;91.47;101097.91;5094286;28;20032;-69
2022/06/02 11:11:22;;;;;;;4.05;2.40;;;;;;;18.14;85.59;101098.66;5091240;28;20035;-69
2022/06/02 11:14:17;;;;;;;3.38;2.30;;;;;;;18.43;90.29;101096.59;5070864;28;20028;-69
2022/06/02 11:17:03;;;;;;;10.50;2.58;;;;;;;18.74;85.59;101089.94;5089941;28;20020;-69
2022/06/02 11:19:32;;;;;;;4.35;1.88;;;;;;;18.94;84.22;101088.47;5089285;28;20032;-69
2022/06/02 11:22:36;;;;;;;4.15;2.50;;;;;;;19.14;81.42;101088.69;5084329;28;20023;-69
2022/06/02 11:25:20;;;;;;;3.60;2.40;;;;;;;19.24;78.30;101087.03;5079707;28;20024;-70
2022/06/02 11:28:10;;;;;;;3.22;2.20;;;;;;;19.09;78.47;101079.34;5077739;28;20391;-70
2022/06/02 11:31:00;;;;;;;3.60;1.98;;;;;;;19.21;78.85;101081.06;5090227;28;20093;-69
2022/06/02 11:33:35;;;;;;;5.00;1.90;;;;;;;19.55;76.99;101074.94;5088242;28;20382;-70
2022/06/02 11:36:12;;;;;;;5.18;1.70;;;;;;;19.72;75.52;101078.97;5089000;28;20028;-69
2022/06/02 11:38:57;;;;;;;3.42;1.55;;;;;;;20.58;75.06;101076.59;5083938;28;20032;-69
2022/06/02 11:41:31;;;;;;;3.97;1.83;;;;;;;21.67;74.99;101070.91;5086015;28;20071;-69
2022/06/02 11:44:12;;;;;;;6.50;2.00;;;;;;;23.03;70.77;101052.53;5090859;28;20495;-69
2022/06/02 11:46:53;;;;;;;2.85;1.77;;;;;;;24.02;64.24;101065.53;5087317;28;20059;-68
2022/06/02 11:49:56;;;;;;;3.03;1.83;;;;;;;24.11;66.53;101053.91;5072670;28;20030;-69
2022/06/02 11:53:04;;;;;;;5.25;2.65;;;;;;;24.54;63.05;101049.75;5053769;28;20040;-68
2022/06/02 11:56:04;;;;;;;9.20;2.42;;;;;;;25.25;62.50;101038.06;5092148;28;20088;-69
2022/06/02 11:58:54;;;;;;;5.93;2.25;;;;;;;26.09;61.70;101024.81;5092896;28;20035;-69
2022/06/02 12:01:47;;;;;;;3.30;1.85;;;;;;;26.83;59.19;101029.50;5070228;28;20040;-70
2022/06/02 12:04:34;;;;;;;4.53;2.00;;;;;;;27.32;55.12;101023.09;5085304;28;20711;-70
2022/06/02 12:07:18;;;;;;;5.50;1.70;;;;;;;27.55;52.52;101019.72;5082028;28;20407;-69
2022/06/02 12:10:18;;;;;;;4.43;2.20;;;;;;;27.01;49.36;101003.19;5076500;28;20110;-69
2022/06/02 12:13:02;;;;;;;4.25;2.45;;;;;;;26.05;50.86;101012.69;5066707;28;20024;-70
2022/06/02 12:15:57;;;;;;;3.70;1.92;;;;;;;26.41;52.94;101019.59;5091033;28;20397;-69
2022/06/02 12:18:26;;;;;;;5.82;2.72;;;;;;;27.22;50.63;100992.75;5091809;28;20459;-69
2022/06/02 12:20:58;;;;;;;5.05;2.22;;;;;;;28.15;50.61;101014.72;5081968;28;20034;-69
2022/06/02 12:23:41;;;;;;;4.43;1.85;;;;;;;28.66;46.45;101005.13;5092393;28;20411;-70
2022/06/02 12:26:13;;;;;;;6.17;2.27;;;;;;;28.76;46.55;101011.19;5055859;28;20406;-69
2022/06/02 12:29:00;;;;;;;4.53;1.80;;;;;;;29.04;46.64;101004.19;5109012;28;20039;-69
2022/06/02 12:31:47;;;;;;;7.45;1.70;;;;;;;29.02;43.21;101000.00;5059880;28;20066;-70
2022/06/02 12:34:18;;;;;;;3.03;1.50;;;;;;;29.29;47.05;100997.59;5074617;28;20028;-70
2022/06/02 12:37:02;;;;;;;3.10;1.98;;;;;;;29.36;43.61;101003.09;5092716;28;20031;-69
2022/06/02 12:39:39;;;;;;;4.88;2.13;;;;;;;29.09;43.00;100995.53;5086917;28;20020;-71
2022/06/02 12:42:41;;;;;;;7.38;1.90;;;;;;;28.41;43.84;101001.72;5090921;28;20036;-70
2022/06/02 12:45:39;;;;;;;9.82;2.05;;;;;;;27.59;42.13;100988.66;5074410;28;20081;-70
2022/06/02 12:48:18;;;;;;;3.65;2.03;;;;;;;26.64;44.45;100965.03;5072409;28;20086;-70